Lompico, California
Current Conditions -  °F | °C
As of 2:10 AM on Sunday 23 Nov 2014 (Local Time) from KWVI Reporting Station
Haze Haze  
Wind Chill:   Ceiling: 200
Heat Index:   Visibility: 1mi
Dew Point:   Wind: 0mph
Humidity: 93%   Direction: NA
Pressure: 30.23"   Gusts: NA
Location:  37.0802°N, 122.052°W
Report Text: KWVI 231010Z AUTO 00000KT 1SM BR VV002 09/08 A3023 RMK AO2 T00940083
Loading
Personal Weather Stations






























Interactive Weather Map New forecast layout! Learn more

10-Day Weather Forecast

Advertisements
Track Severe Weather on mobile